createdAt,value
2017-10-30T00:00:35.184Z,2.83
2017-10-30T00:03:04.568Z,2.60
2017-10-30T00:05:33.952Z,2.07
2017-10-30T00:08:03.365Z,2.50
2017-10-30T00:10:32.749Z,3.00
2017-10-30T00:13:02.129Z,2.50
2017-10-30T00:15:31.545Z,2.90
2017-10-30T00:18:00.951Z,2.07
2017-10-30T00:20:30.338Z,4.53
2017-10-30T00:22:59.752Z,2.33
2017-10-30T00:25:29.135Z,2.77
2017-10-30T00:27:58.519Z,3.43
2017-10-30T00:30:27.968Z,2.73
2017-10-30T00:32:57.393Z,3.30
2017-10-30T00:35:26.837Z,2.60
2017-10-30T00:37:56.275Z,2.80
2017-10-30T00:40:25.741Z,3.40
2017-10-30T00:42:55.138Z,2.60
2017-10-30T00:45:24.544Z,4.13
2017-10-30T00:47:53.946Z,4.37
2017-10-30T00:50:23.361Z,3.47
2017-10-30T00:52:52.580Z,3.53
2017-10-30T00:55:21.975Z,4.30
2017-10-30T00:57:51.017Z,3.37
2017-10-30T01:00:20.430Z,4.20
2017-10-30T01:02:49.832Z,4.93
2017-10-30T01:05:19.227Z,3.90
2017-10-30T01:07:49.446Z,4.90
2017-10-30T01:10:18.847Z,4.20
2017-10-30T01:12:48.241Z,3.50
2017-10-30T01:15:18.638Z,3.13
2017-10-30T01:17:47.837Z,3.40
2017-10-30T01:20:17.244Z,4.30
2017-10-30T01:22:47.022Z,3.30
2017-10-30T01:25:16.408Z,3.90
2017-10-30T01:27:45.793Z,3.53
2017-10-30T01:30:15.195Z,3.53
2017-10-30T01:32:44.583Z,3.40
2017-10-30T01:35:14.001Z,3.53
2017-10-30T01:37:43.504Z,5.07
2017-10-30T01:40:12.906Z,4.57
2017-10-30T01:42:42.297Z,4.10
2017-10-30T01:45:11.708Z,3.97
2017-10-30T01:47:41.102Z,4.40
2017-10-30T01:50:10.484Z,3.77
2017-10-30T01:52:39.897Z,4.50
2017-10-30T01:55:08.941Z,4.50
2017-10-30T01:57:38.341Z,5.10
2017-10-30T02:00:07.861Z,3.97
2017-10-30T02:02:37.153Z,4.47
2017-10-30T02:05:06.553Z,3.87
2017-10-30T02:07:35.986Z,4.50
2017-10-30T02:10:05.365Z,4.17
2017-10-30T02:12:34.764Z,4.20
2017-10-30T02:15:03.827Z,4.90
2017-10-30T02:17:33.209Z,4.67
2017-10-30T02:20:02.589Z,3.63
2017-10-30T02:22:32.266Z,4.20
2017-10-30T02:25:01.320Z,3.90
2017-10-30T02:27:30.701Z,4.13
2017-10-30T02:30:00.116Z,4.07
2017-10-30T02:32:29.155Z,3.83
2017-10-30T02:34:58.545Z,3.80
2017-10-30T02:37:27.615Z,3.97
2017-10-30T02:39:56.992Z,3.27
2017-10-30T02:42:26.016Z,4.00
2017-10-30T02:44:55.427Z,4.40
2017-10-30T02:47:24.452Z,4.47
2017-10-30T02:49:53.497Z,4.57
2017-10-30T02:52:22.557Z,3.43
2017-10-30T02:54:51.603Z,3.60
2017-10-30T02:57:21.001Z,3.30
2017-10-30T02:59:50.079Z,2.87
2017-10-30T03:02:19.454Z,4.13
2017-10-30T03:04:48.840Z,3.93
2017-10-30T03:07:17.922Z,3.50
2017-10-30T03:09:46.963Z,4.07
2017-10-30T03:12:16.348Z,5.77
2017-10-30T03:14:45.421Z,3.40
2017-10-30T03:17:14.277Z,3.40
2017-10-30T03:19:43.129Z,4.17
2017-10-30T03:22:12.191Z,2.87
2017-10-30T03:24:41.237Z,3.90
2017-10-30T03:27:10.617Z,3.80
2017-10-30T03:29:40.007Z,3.87
2017-10-30T03:32:09.421Z,3.53
2017-10-30T03:34:38.831Z,3.30
2017-10-30T03:37:08.251Z,3.17
2017-10-30T03:39:37.633Z,3.07
2017-10-30T03:42:06.689Z,3.87
2017-10-30T03:44:36.093Z,3.43
2017-10-30T03:47:05.480Z,4.00
2017-10-30T03:49:34.870Z,3.33
2017-10-30T03:52:03.915Z,3.37
2017-10-30T03:54:33.298Z,3.40
2017-10-30T03:57:02.694Z,3.30
2017-10-30T03:59:32.098Z,4.10
2017-10-30T04:02:01.513Z,3.60
2017-10-30T04:04:30.897Z,5.70
2017-10-30T04:07:00.313Z,3.03
2017-10-30T04:09:29.712Z,3.47
2017-10-30T04:11:59.116Z,3.70
2017-10-30T04:14:28.549Z,3.43
2017-10-30T04:16:57.921Z,3.60
2017-10-30T04:19:27.318Z,4.27
2017-10-30T04:21:56.741Z,3.13
2017-10-30T04:24:26.130Z,3.33
2017-10-30T04:26:55.513Z,3.40
2017-10-30T04:29:24.917Z,3.70
2017-10-30T04:31:54.317Z,3.10
2017-10-30T04:34:23.702Z,5.00
2017-10-30T04:36:53.100Z,4.50
2017-10-30T04:39:22.507Z,2.80
2017-10-30T04:41:51.898Z,4.10
2017-10-30T04:44:21.343Z,2.87
2017-10-30T04:46:50.966Z,3.20
2017-10-30T04:49:20.365Z,4.50
2017-10-30T04:51:49.770Z,3.60
2017-10-30T04:54:19.165Z,3.43
2017-10-30T04:56:48.577Z,4.00
2017-10-30T04:59:17.977Z,4.20
2017-10-30T05:01:47.381Z,4.00
2017-10-30T05:04:16.760Z,3.07
2017-10-30T05:06:46.149Z,3.20
2017-10-30T05:09:15.553Z,3.40
2017-10-30T05:11:44.945Z,2.67
2017-10-30T05:14:14.329Z,3.77
2017-10-30T05:16:43.768Z,3.07
2017-10-30T05:19:13.150Z,3.67
2017-10-30T05:21:42.553Z,3.83
2017-10-30T05:24:11.971Z,3.00
2017-10-30T05:26:41.365Z,2.33
2017-10-30T05:29:10.742Z,3.57
2017-10-30T05:31:40.203Z,2.60
2017-10-30T05:34:09.585Z,2.87
2017-10-30T05:36:38.981Z,3.00
2017-10-30T05:39:08.385Z,3.27
2017-10-30T05:41:37.769Z,3.53
2017-10-30T05:44:07.159Z,3.53
2017-10-30T05:46:36.607Z,3.37
2017-10-30T05:49:06.945Z,2.53
2017-10-30T05:51:36.349Z,3.13
2017-10-30T05:54:05.749Z,2.40
2017-10-30T05:56:35.134Z,2.90
2017-10-30T05:59:04.539Z,2.77
2017-10-30T06:01:33.940Z,3.03
2017-10-30T06:04:03.346Z,2.77
2017-10-30T06:06:32.765Z,2.60
2017-10-30T06:09:02.149Z,2.40
2017-10-30T06:11:31.533Z,3.23
2017-10-30T06:14:00.949Z,3.10
2017-10-30T06:16:30.364Z,3.37
2017-10-30T06:18:59.748Z,3.80
2017-10-30T06:21:29.160Z,2.80
2017-10-30T06:23:58.597Z,3.17
2017-10-30T06:26:27.977Z,2.50
2017-10-30T06:28:57.384Z,3.03
2017-10-30T06:31:26.792Z,3.03
2017-10-30T06:33:56.173Z,4.17
2017-10-30T06:36:25.581Z,2.90
2017-10-30T06:38:54.971Z,3.57
2017-10-30T06:41:24.356Z,2.90
2017-10-30T06:43:53.748Z,3.23
2017-10-30T06:46:23.144Z,3.70
2017-10-30T06:48:52.534Z,2.97
2017-10-30T06:51:22.504Z,3.40
2017-10-30T06:53:51.872Z,2.50
2017-10-30T06:56:21.253Z,2.50
2017-10-30T06:58:50.662Z,2.93
2017-10-30T07:01:20.073Z,3.10
2017-10-30T07:03:49.450Z,2.80
2017-10-30T07:06:18.861Z,3.63
2017-10-30T07:08:48.251Z,2.77
2017-10-30T07:11:17.653Z,3.40
2017-10-30T07:13:47.301Z,3.60
2017-10-30T07:16:16.329Z,2.13
2017-10-30T07:18:45.781Z,2.10
2017-10-30T07:21:15.186Z,3.90
2017-10-30T07:23:44.583Z,2.80
2017-10-30T07:26:13.998Z,3.17
2017-10-30T07:28:43.393Z,2.90
2017-10-30T07:31:12.781Z,2.77
2017-10-30T07:33:42.161Z,3.73
2017-10-30T07:36:11.570Z,2.90
2017-10-30T07:38:40.959Z,2.83
2017-10-30T07:41:10.350Z,2.83
2017-10-30T07:43:39.770Z,2.80
2017-10-30T07:46:09.162Z,2.50
2017-10-30T07:48:38.569Z,2.10
2017-10-30T07:51:07.689Z,2.93
2017-10-30T07:53:37.069Z,2.77
2017-10-30T07:56:06.462Z,3.60
2017-10-30T07:58:36.011Z,3.30
2017-10-30T08:01:05.077Z,4.03
2017-10-30T08:03:34.168Z,2.80
2017-10-30T08:06:03.264Z,2.97
2017-10-30T08:08:33.916Z,3.07
2017-10-30T08:11:03.080Z,2.53
2017-10-30T08:13:32.142Z,2.70
2017-10-30T08:16:01.182Z,4.30
2017-10-30T08:18:30.293Z,3.17
2017-10-30T08:20:59.313Z,5.50
2017-10-30T08:23:28.280Z,4.47
2017-10-30T08:25:57.342Z,4.10
2017-10-30T08:28:25.032Z,3.90
2017-10-30T08:30:53.058Z,3.93
2017-10-30T08:33:21.261Z,3.87
2017-10-30T08:35:49.708Z,4.33
2017-10-30T08:38:17.989Z,4.30
2017-10-30T08:40:45.711Z,3.07
2017-10-30T08:43:13.399Z,3.60
2017-10-30T08:45:41.091Z,4.10
2017-10-30T08:48:09.147Z,4.93
2017-10-30T08:50:36.870Z,4.50
2017-10-30T08:53:04.565Z,3.83
2017-10-30T08:55:32.625Z,4.00
2017-10-30T08:58:01.434Z,3.83
2017-10-30T09:00:29.114Z,3.30
2017-10-30T09:02:56.825Z,3.33
2017-10-30T09:05:24.862Z,3.50
2017-10-30T09:07:52.572Z,3.20
2017-10-30T09:10:21.039Z,3.90
2017-10-30T09:12:48.721Z,3.70
2017-10-30T09:15:17.175Z,2.53
2017-10-30T09:17:45.233Z,4.50
2017-10-30T09:20:12.935Z,4.20
2017-10-30T09:22:41.375Z,4.10
2017-10-30T09:25:09.090Z,3.90
2017-10-30T09:27:36.785Z,3.50
2017-10-30T09:30:04.491Z,3.60
2017-10-30T09:32:32.439Z,3.63
2017-10-30T09:35:00.121Z,4.17
2017-10-30T09:37:28.577Z,3.50
2017-10-30T09:39:56.278Z,4.40
2017-10-30T09:42:24.735Z,3.07
2017-10-30T09:44:53.001Z,3.63
2017-10-30T09:47:20.886Z,3.07
2017-10-30T09:49:49.347Z,3.83
2017-10-30T09:52:19.202Z,4.87
2017-10-30T09:54:46.913Z,3.60
2017-10-30T09:57:14.882Z,4.60
2017-10-30T09:59:42.575Z,3.50
2017-10-30T10:02:11.043Z,3.63
2017-10-30T10:04:38.731Z,4.47
2017-10-30T10:07:06.783Z,4.97
2017-10-30T10:09:35.270Z,3.20
2017-10-30T10:12:04.106Z,4.37
2017-10-30T10:14:32.129Z,4.50
2017-10-30T10:17:00.845Z,3.90
2017-10-30T10:19:28.886Z,3.93
2017-10-30T10:21:57.681Z,3.07
2017-10-30T10:24:25.730Z,3.43
2017-10-30T10:26:54.131Z,4.77
2017-10-30T10:29:21.818Z,3.03
2017-10-30T10:31:49.883Z,3.30
2017-10-30T10:34:17.563Z,3.53
2017-10-30T10:36:45.606Z,3.27
2017-10-30T10:39:13.334Z,4.57
2017-10-30T10:41:41.971Z,3.07
2017-10-30T10:44:10.404Z,3.23
2017-10-30T10:46:39.022Z,2.57
2017-10-30T10:49:06.706Z,3.20
2017-10-30T10:51:35.089Z,2.83
2017-10-30T10:54:03.622Z,3.30
2017-10-30T10:56:32.053Z,2.87
2017-10-30T10:59:00.661Z,3.00
2017-10-30T11:01:29.102Z,2.57
2017-10-30T11:03:57.470Z,3.40
2017-10-30T11:06:25.862Z,2.27
2017-10-30T11:08:53.945Z,3.07
2017-10-30T11:11:22.315Z,2.23
2017-10-30T11:13:50.349Z,2.47
2017-10-30T11:16:18.071Z,2.63
2017-10-30T11:18:46.016Z,3.87
2017-10-30T11:21:14.071Z,2.83
2017-10-30T11:23:42.458Z,4.43
2017-10-30T11:26:10.839Z,3.73
2017-10-30T11:28:39.206Z,3.50
2017-10-30T11:31:07.618Z,2.60
2017-10-30T11:33:36.027Z,1.87
2017-10-30T11:36:05.180Z,2.60
2017-10-30T11:38:33.578Z,2.33
2017-10-30T11:41:01.613Z,3.30
2017-10-30T11:43:29.993Z,4.70
2017-10-30T11:45:58.391Z,2.53
2017-10-30T11:48:27.525Z,2.73
2017-10-30T11:50:56.670Z,2.93
2017-10-30T11:53:25.094Z,3.80
2017-10-30T11:55:54.262Z,3.40
2017-10-30T11:58:23.419Z,3.00
2017-10-30T12:00:51.876Z,2.37
2017-10-30T12:03:21.021Z,2.20
2017-10-30T12:05:50.177Z,3.27
2017-10-30T12:08:18.567Z,2.10
2017-10-30T12:10:46.767Z,2.60
2017-10-30T12:13:15.154Z,2.70
2017-10-30T12:15:43.559Z,2.17
2017-10-30T12:18:11.943Z,3.83
2017-10-30T12:20:41.103Z,3.77
2017-10-30T12:23:09.513Z,2.37
2017-10-30T12:25:37.554Z,1.97
2017-10-30T12:28:05.927Z,3.03
2017-10-30T12:30:34.314Z,1.80
2017-10-30T12:33:02.016Z,2.20
2017-10-30T12:35:30.630Z,2.87
2017-10-30T12:37:59.022Z,2.17
2017-10-30T12:40:27.066Z,2.50
2017-10-30T12:42:55.438Z,2.10
2017-10-30T12:45:23.845Z,2.57
2017-10-30T12:47:52.232Z,2.63
2017-10-30T12:50:20.265Z,3.40
2017-10-30T12:52:48.652Z,2.43
2017-10-30T12:55:16.701Z,3.33
2017-10-30T12:57:46.726Z,2.20
2017-10-30T13:00:15.202Z,2.40
2017-10-30T13:02:44.353Z,2.17
2017-10-30T13:05:12.739Z,3.33
2017-10-30T13:07:41.244Z,2.70
2017-10-30T13:10:10.408Z,3.07
2017-10-30T13:12:38.095Z,2.43
2017-10-30T13:15:06.491Z,2.70
2017-10-30T13:17:35.646Z,2.50
2017-10-30T13:20:03.870Z,2.00
2017-10-30T13:22:32.270Z,2.30
2017-10-30T13:25:00.654Z,2.97
2017-10-30T13:27:29.025Z,2.80
2017-10-30T13:29:57.949Z,1.40
2017-10-30T13:32:26.316Z,2.00
2017-10-30T13:34:54.701Z,3.27
2017-10-30T13:37:23.117Z,1.90
2017-10-30T13:39:51.738Z,2.43
2017-10-30T13:42:20.137Z,2.93
2017-10-30T13:44:48.530Z,3.00
2017-10-30T13:47:16.916Z,2.93
2017-10-30T13:49:45.301Z,2.47
2017-10-30T13:52:13.519Z,2.63
2017-10-30T13:54:41.902Z,2.63
2017-10-30T13:57:10.290Z,2.50
2017-10-30T13:59:38.930Z,2.20
2017-10-30T14:02:08.070Z,1.80
2017-10-30T14:04:36.455Z,2.10
2017-10-30T14:07:04.863Z,3.23
2017-10-30T14:09:33.257Z,2.53
2017-10-30T14:12:02.407Z,2.43
2017-10-30T14:14:30.809Z,2.27
2017-10-30T14:16:59.202Z,2.50
2017-10-30T14:19:27.841Z,3.37
2017-10-30T14:21:56.239Z,3.00
2017-10-30T14:24:24.646Z,2.23
2017-10-30T14:26:53.017Z,2.13
2017-10-30T14:29:21.078Z,2.87
2017-10-30T14:31:48.783Z,2.27
2017-10-30T14:34:17.150Z,3.00
2017-10-30T14:36:46.313Z,2.07
2017-10-30T14:39:14.057Z,2.00
2017-10-30T14:41:41.752Z,1.70
2017-10-30T14:44:09.462Z,1.80
2017-10-30T14:46:37.531Z,2.80
2017-10-30T14:49:05.909Z,2.30
2017-10-30T14:51:33.613Z,2.40
2017-10-30T14:54:01.648Z,2.10
2017-10-30T14:56:29.337Z,2.20
2017-10-30T14:58:58.173Z,2.07
2017-10-30T15:01:26.210Z,2.43
2017-10-30T15:03:54.251Z,3.13
2017-10-30T15:06:22.646Z,2.07
2017-10-30T15:08:50.327Z,2.40
2017-10-30T15:11:18.359Z,2.90
2017-10-30T15:13:46.419Z,1.77
2017-10-30T15:16:14.472Z,2.37
2017-10-30T15:18:42.509Z,2.57
2017-10-30T15:21:10.470Z,2.27
2017-10-30T15:23:38.853Z,2.00
2017-10-30T15:26:07.345Z,1.90
2017-10-30T15:28:36.521Z,2.40
2017-10-30T15:31:04.972Z,1.80
2017-10-30T15:33:33.000Z,2.07
2017-10-30T15:36:02.273Z,2.00
2017-10-30T15:38:30.658Z,2.10
2017-10-30T15:40:59.816Z,2.43
2017-10-30T15:43:28.222Z,2.33
2017-10-30T15:45:56.590Z,2.87
2017-10-30T15:48:24.982Z,2.63
2017-10-30T15:50:53.381Z,2.90
2017-10-30T15:53:22.545Z,2.50
2017-10-30T15:55:50.226Z,2.20
2017-10-30T15:58:18.622Z,2.33
2017-10-30T16:00:47.775Z,2.77
2017-10-30T16:03:16.142Z,1.87
2017-10-30T16:05:44.550Z,2.10
2017-10-30T16:08:12.926Z,2.20
2017-10-30T16:10:41.329Z,2.47
2017-10-30T16:13:10.475Z,2.43
2017-10-30T16:15:39.626Z,2.50
2017-10-30T16:18:08.782Z,3.00
2017-10-30T16:20:37.178Z,1.87
2017-10-30T16:23:05.558Z,1.67
2017-10-30T16:25:33.949Z,1.80
2017-10-30T16:28:03.110Z,2.80
2017-10-30T16:30:31.496Z,2.40
2017-10-30T16:32:59.877Z,2.13
2017-10-30T16:35:27.952Z,1.40
2017-10-30T16:37:55.995Z,2.50
2017-10-30T16:40:24.382Z,2.03
2017-10-30T16:42:53.107Z,2.63
2017-10-30T16:45:22.267Z,3.87
2017-10-30T16:47:50.655Z,2.97
2017-10-30T16:50:19.067Z,3.37
2017-10-30T16:52:48.206Z,2.60
2017-10-30T16:55:16.229Z,2.50
2017-10-30T16:57:45.377Z,2.40
2017-10-30T17:00:13.057Z,2.50
2017-10-30T17:02:41.457Z,2.30
2017-10-30T17:05:10.621Z,2.60
2017-10-30T17:07:38.992Z,3.00
2017-10-30T17:10:07.406Z,3.47
2017-10-30T17:12:36.556Z,3.33
2017-10-30T17:15:04.941Z,2.93
2017-10-30T17:17:34.092Z,4.60
2017-10-30T17:20:02.489Z,4.10
2017-10-30T17:22:30.901Z,3.63
2017-10-30T17:24:59.278Z,5.23
2017-10-30T17:27:27.782Z,4.50
2017-10-30T17:29:56.176Z,4.30
2017-10-30T17:32:25.331Z,4.10
2017-10-30T17:34:53.725Z,6.03
2017-10-30T17:37:22.112Z,8.30
2017-10-30T17:39:50.513Z,6.00
2017-10-30T17:42:19.898Z,5.50
2017-10-30T17:44:49.307Z,4.83
2017-10-30T17:47:18.702Z,5.20
2017-10-30T17:49:48.098Z,3.60
2017-10-30T17:52:17.600Z,4.67
2017-10-30T17:54:47.004Z,4.37
2017-10-30T17:57:16.423Z,4.20
2017-10-30T17:59:45.820Z,3.87
2017-10-30T18:02:15.201Z,3.67
2017-10-30T18:04:44.608Z,3.20
2017-10-30T18:07:14.118Z,2.87
2017-10-30T18:09:43.524Z,2.80
2017-10-30T18:12:12.920Z,2.47
2017-10-30T18:14:42.308Z,2.67
2017-10-30T18:17:11.700Z,2.53
2017-10-30T18:19:41.093Z,2.50
2017-10-30T18:22:16.264Z,2.70
2017-10-30T18:24:45.672Z,4.23
2017-10-30T18:27:15.180Z,2.60
2017-10-30T18:29:44.809Z,2.90
2017-10-30T18:32:14.207Z,2.90
2017-10-30T18:34:43.596Z,3.00
2017-10-30T18:37:13.434Z,2.90
2017-10-30T18:39:42.869Z,2.30
2017-10-30T18:42:12.235Z,3.20
2017-10-30T18:44:41.641Z,3.80
2017-10-30T18:47:11.013Z,3.80
2017-10-30T18:49:40.405Z,3.60
2017-10-30T18:52:09.792Z,3.80
2017-10-30T18:54:39.188Z,3.30
2017-10-30T18:57:08.586Z,3.43
2017-10-30T18:59:37.961Z,3.00
2017-10-30T19:02:07.461Z,3.30
2017-10-30T19:04:36.850Z,3.40
2017-10-30T19:07:07.878Z,2.20
2017-10-30T19:09:37.270Z,3.43
2017-10-30T19:12:06.693Z,4.00
2017-10-30T19:14:36.101Z,3.43
2017-10-30T19:17:05.501Z,3.90
2017-10-30T19:19:34.887Z,4.03
2017-10-30T19:22:03.921Z,4.00
2017-10-30T19:24:33.296Z,4.17
2017-10-30T19:27:02.687Z,5.67
2017-10-30T19:29:32.080Z,6.80
2017-10-30T19:32:01.593Z,5.70
2017-10-30T19:34:30.984Z,6.07
2017-10-30T19:37:00.369Z,5.00
2017-10-30T19:39:29.784Z,5.77
2017-10-30T19:41:59.177Z,4.80
2017-10-30T19:44:28.385Z,4.40
2017-10-30T19:46:57.779Z,5.40
2017-10-30T19:49:27.184Z,5.40
2017-10-30T19:51:56.569Z,6.00
2017-10-30T19:54:25.967Z,5.13
2017-10-30T19:56:55.356Z,5.10
2017-10-30T19:59:24.746Z,4.30
2017-10-30T20:01:54.161Z,4.70
2017-10-30T20:04:23.563Z,4.70
2017-10-30T20:06:58.661Z,4.80
2017-10-30T20:09:33.821Z,6.03
2017-10-30T20:12:08.705Z,6.63
2017-10-30T20:14:38.088Z,6.60
2017-10-30T20:17:07.477Z,5.40
2017-10-30T20:19:36.861Z,5.90
2017-10-30T20:22:06.285Z,4.93
2017-10-30T20:24:35.787Z,5.57
2017-10-30T20:27:05.164Z,4.80
2017-10-30T20:29:34.363Z,5.10
2017-10-30T20:32:03.426Z,5.67
2017-10-30T20:34:32.801Z,5.90
2017-10-30T20:37:02.224Z,4.60
2017-10-30T20:39:31.613Z,4.67
2017-10-30T20:42:01.002Z,5.37
2017-10-30T20:44:30.398Z,5.30
2017-10-30T20:46:59.773Z,5.70
2017-10-30T20:49:29.195Z,5.50
2017-10-30T20:51:58.578Z,4.07
2017-10-30T20:54:27.961Z,4.70
2017-10-30T20:56:57.893Z,4.77
2017-10-30T20:59:27.268Z,5.40
2017-10-30T21:01:56.672Z,5.23
2017-10-30T21:04:26.277Z,4.80
2017-10-30T21:06:55.821Z,5.53
2017-10-30T21:09:25.216Z,6.23
2017-10-30T21:11:54.612Z,6.60
2017-10-30T21:14:24.025Z,5.80
2017-10-30T21:16:53.515Z,5.47
2017-10-30T21:19:22.898Z,6.77
2017-10-30T21:21:52.281Z,4.40
2017-10-30T21:24:21.668Z,5.33
2017-10-30T21:26:51.086Z,4.67
2017-10-30T21:29:20.492Z,4.53
2017-10-30T21:31:50.219Z,5.20
2017-10-30T21:34:19.600Z,5.23
2017-10-30T21:36:49.039Z,4.70
2017-10-30T21:39:19.299Z,4.63
2017-10-30T21:41:49.077Z,5.30
2017-10-30T21:44:18.575Z,4.83
2017-10-30T21:46:47.952Z,5.03
2017-10-30T21:49:17.323Z,4.60
2017-10-30T21:51:46.719Z,5.63
2017-10-30T21:54:16.096Z,5.03
2017-10-30T21:56:45.495Z,4.70
2017-10-30T21:59:14.876Z,4.90
2017-10-30T22:01:44.272Z,4.37
2017-10-30T22:04:13.656Z,4.90
2017-10-30T22:06:43.032Z,5.00
2017-10-30T22:09:12.434Z,5.40
2017-10-30T22:11:41.815Z,5.00
2017-10-30T22:14:11.210Z,4.40
2017-10-30T22:16:40.613Z,5.07
2017-10-30T22:19:09.999Z,5.53
2017-10-30T22:21:39.415Z,6.43
2017-10-30T22:24:08.792Z,4.50
2017-10-30T22:26:38.179Z,4.13
2017-10-30T22:29:07.596Z,6.50
2017-10-30T22:31:36.976Z,5.40
2017-10-30T22:34:06.378Z,4.80
2017-10-30T22:36:35.756Z,5.03
2017-10-30T22:39:04.791Z,4.80
2017-10-30T22:41:34.185Z,4.20
2017-10-30T22:44:03.593Z,5.27
2017-10-30T22:46:33.229Z,4.50
2017-10-30T22:49:02.624Z,4.80
2017-10-30T22:51:31.817Z,5.40
2017-10-30T22:54:01.319Z,4.90
2017-10-30T22:56:30.698Z,4.40
2017-10-30T22:58:59.908Z,5.03
2017-10-30T23:01:29.529Z,4.30
2017-10-30T23:03:58.909Z,5.03
2017-10-30T23:06:28.296Z,4.73
2017-10-30T23:08:57.847Z,5.17
2017-10-30T23:11:27.241Z,4.93
2017-10-30T23:13:56.628Z,5.20
2017-10-30T23:16:26.020Z,4.50
2017-10-30T23:18:55.397Z,4.93
2017-10-30T23:21:24.777Z,5.00
2017-10-30T23:23:54.176Z,4.70
2017-10-30T23:26:23.577Z,4.80
2017-10-30T23:28:52.976Z,4.80
2017-10-30T23:31:22.376Z,5.43
2017-10-30T23:33:51.792Z,5.73
2017-10-30T23:36:21.188Z,4.50
2017-10-30T23:38:50.603Z,5.23
2017-10-30T23:41:20.002Z,5.53
2017-10-30T23:43:49.433Z,5.40
2017-10-30T23:46:18.820Z,5.97
2017-10-30T23:48:48.241Z,4.87
2017-10-30T23:51:17.614Z,4.10
2017-10-30T23:53:47.037Z,5.10
2017-10-30T23:56:16.411Z,4.07
2017-10-30T23:58:45.821Z,6.57
